EDT,Max TemperatureF,Mean TemperatureF,Min TemperatureF,Max Dew PointF,MeanDew PointF,Min DewpointF,Max Humidity, Mean Humidity, Min Humidity, Max Sea Level PressureIn, Mean Sea Level PressureIn, Min Sea Level PressureIn, Max VisibilityMiles, Mean VisibilityMiles, Min VisibilityMiles, Max Wind SpeedMPH, Mean Wind SpeedMPH, Max Gust SpeedMPH,PrecipitationIn, CloudCover, Events, WindDirDegrees
2013-10-1,77,65,53,55,47,36,83,66,24,29.87,29.76,29.67,10,10,10,23,11,29,0.00,0,,217
2013-10-2,69,56,42,41,36,32,76,52,25,30.06,29.98,29.86,10,10,10,12,4,18,0.00,0,,251
2013-10-3,59,54,50,50,46,41,94,77,64,30.05,30.01,29.96,10,10,10,14,2,,0.00,7,Rain,49
2013-10-4,57,54,52,52,50,46,94,86,77,30.14,30.06,29.99,10,10,10,15,10,22,0.00,8,,45
2013-10-5,53,50,48,50,48,46,100,94,81,30.14,30.03,29.83,10,6,0,14,8,,0.05,8,Fog-Rain,77
2013-10-6,64,57,50,59,52,47,100,94,77,29.82,29.68,29.59,10,5,0,13,8,16,0.00,8,Fog-Rain,113
2013-10-7,66,54,40,47,41,36,96,82,46,30.02,29.76,29.62,10,9,4,20,7,26,0.02,5,Rain,325
2013-10-8,66,50,34,52,41,32,93,81,42,30.11,30.05,30.02,10,10,10,21,5,26,0.00,0,,190
2013-10-9,73,60,48,52,49,46,93,78,41,30.14,30.10,30.05,10,10,7,20,12,25,0.00,0,,197
2013-10-10,69,56,42,52,46,41,97,82,38,30.16,30.13,30.09,10,9,0,14,7,,0.00,0,Fog,196
2013-10-11,68,58,48,54,50,46,100,89,52,30.11,30.06,29.97,10,4,0,16,8,24,0.00,5,Fog,184
2013-10-12,62,55,48,59,52,42,94,87,74,29.98,29.90,29.33,10,9,2,17,11,26,0.00,3,Rain-Thunderstorm,186
2013-10-13,51,43,35,43,39,32,93,77,58,30.40,30.20,29.99,10,10,10,12,6,18,0.00,4,,275
2013-10-14,55,42,30,39,33,28,96,80,44,30.43,30.38,30.27,10,10,10,9,1,,0.00,0,,113
2013-10-15,51,48,44,50,43,37,100,87,72,30.26,29.99,29.69,10,8,1,12,7,17,0.00,4,Rain,104
2013-10-16,50,45,39,50,43,33,100,89,70,29.87,29.74,29.64,10,6,0,18,8,25,0.00,8,Fog-Rain,350
2013-10-17,51,40,28,37,33,27,100,86,54,29.87,29.80,29.72,10,10,7,8,0,,0.00,1,,9
2013-10-18,46,40,35,43,38,34,96,92,81,29.83,29.76,29.72,10,9,4,14,2,18,0.00,8,Rain,320
2013-10-19,46,39,32,37,34,30,100,88,53,29.82,29.73,29.64,10,10,10,12,2,,0.00,5,,243
2013-10-20,42,36,31,36,34,30,100,93,76,29.77,29.70,29.64,10,8,1,10,3,,0.02,5,Rain,229
2013-10-21,37,33,29,35,30,21,100,86,60,29.71,29.65,29.60,10,9,5,21,6,29,0.01,7,Rain-Snow,262
2013-10-22,37,34,30,34,30,26,100,88,75,29.89,29.75,29.60,10,8,2,21,12,26,0.01,7,Snow,300
2013-10-23,39,34,28,28,26,23,90,79,52,29.88,29.85,29.82,10,10,10,22,8,29,0.00,6,,288
2013-10-24,42,35,28,30,28,26,93,84,57,30.14,29.98,29.87,10,10,10,15,7,21,0.00,3,,301
2013-10-25,41,34,28,31,28,23,100,80,49,30.18,30.02,29.59,10,10,7,22,9,30,0.00,3,Rain,255
2013-10-26,42,37,32,38,33,28,100,85,69,29.95,29.72,29.54,10,9,1,20,10,31,0.00,7,Rain-Snow,295
2013-10-27,42,37,32,34,30,28,93,83,57,30.08,29.91,29.78,10,10,5,18,5,25,0.04,8,Rain-Snow,264
2013-10-28,35,30,23,31,24,19,90,75,60,30.46,30.32,30.09,10,9,3,21,13,32,0.00,6,Snow,19
2013-10-29,35,27,19,31,22,17,100,87,56,30.45,30.36,30.18,10,9,3,9,1,,0.00,5,Snow,197
2013-10-30,48,40,31,48,38,31,100,97,93,30.17,30.02,29.77,10,6,0,16,3,20,0.01,8,Fog-Rain,185
2013-10-31,51,48,46,50,47,45,100,97,93,29.77,29.46,29.12,10,2,0,17,7,22,0.03,8,Fog-Rain,239